Time;durP1;ratioP1;P1;durP2;ratioP2;P2;SDS_P1;SDS_P2;PMS_P1;PMS_P2;Temp;Humidity;BMP_temperature;BMP_pressure;BME280_temperature;BME280_humidity;BME280_pressure;Samples;Min_cycle;Max_cycle;Signal;HPM_P1;HPM_P2
2023/09/14 00:00:49;;;;;;;6.78;2.20;;;14.50;99.90;;;;;;5040634;28;20480;-69
2023/09/14 00:03:14;;;;;;;7.07;2.35;;;14.50;99.90;;;;;;5010681;28;20487;-70
2023/09/14 00:05:45;;;;;;;6.78;2.60;;;14.50;99.90;;;;;;5012218;28;20042;-69
2023/09/14 00:08:12;;;;;;;6.28;2.67;;;14.50;99.90;;;;;;5011417;28;20080;-69
2023/09/14 00:10:38;;;;;;;5.60;2.40;;;14.50;99.90;;;;;;5011730;28;20077;-70
2023/09/14 00:13:05;;;;;;;6.07;2.42;;;14.50;99.90;;;;;;5010373;28;20121;-70
2023/09/14 00:15:31;;;;;;;7.82;2.53;;;14.40;99.90;;;;;;4994047;28;20115;-69
2023/09/14 00:17:56;;;;;;;6.38;2.42;;;14.40;99.90;;;;;;5010262;28;20042;-69
2023/09/14 00:20:25;;;;;;;6.68;2.30;;;14.40;99.90;;;;;;5011086;28;20038;-69
2023/09/14 00:22:51;;;;;;;8.70;2.45;;;14.40;99.90;;;;;;5011938;28;20072;-69
2023/09/14 00:25:18;;;;;;;8.48;2.60;;;14.40;99.90;;;;;;4993956;28;20046;-70
2023/09/14 00:27:44;;;;;;;10.93;2.58;;;14.40;99.90;;;;;;5014821;28;20500;-70
2023/09/14 00:30:10;;;;;;;7.97;2.63;;;14.40;99.90;;;;;;5010439;28;20049;-70
2023/09/14 00:32:39;;;;;;;7.15;2.65;;;14.40;99.90;;;;;;5011319;28;20252;-69
2023/09/14 00:35:15;;;;;;;6.60;2.03;;;14.50;99.90;;;;;;5011580;28;21322;-70
2023/09/14 00:37:41;;;;;;;6.32;2.25;;;14.50;99.90;;;;;;5011328;28;20046;-69
2023/09/14 00:40:09;;;;;;;6.25;2.20;;;14.50;99.90;;;;;;5010996;28;20042;-70
2023/09/14 00:42:40;;;;;;;5.18;2.38;;;14.50;99.90;;;;;;5010723;28;20492;-70
2023/09/14 00:45:25;;;;;;;8.43;3.05;;;14.40;99.90;;;;;;5011491;28;20462;-70
2023/09/14 00:47:53;;;;;;;10.20;2.20;;;14.50;99.90;;;;;;5004348;28;20100;-70
2023/09/14 00:50:20;;;;;;;5.82;2.28;;;14.40;99.90;;;;;;4989446;28;20369;-70
2023/09/14 00:52:57;;;;;;;5.60;2.30;;;14.50;99.90;;;;;;5000086;28;20046;-70
2023/09/14 00:55:24;;;;;;;7.55;2.70;;;14.50;99.90;;;;;;5003560;28;20090;-69
2023/09/14 00:57:51;;;;;;;7.47;2.10;;;14.40;99.90;;;;;;4993737;28;20050;-70
2023/09/14 01:00:17;;;;;;;6.65;2.20;;;14.40;99.90;;;;;;5011311;28;20038;-70
2023/09/14 01:02:44;;;;;;;7.28;2.20;;;14.40;99.90;;;;;;5010896;28;20064;-70
2023/09/14 01:05:12;;;;;;;7.93;2.40;;;14.40;99.90;;;;;;5010664;28;20125;-70
2023/09/14 01:07:39;;;;;;;4.90;2.17;;;14.40;99.90;;;;;;5010835;28;20042;-70
2023/09/14 01:10:06;;;;;;;6.50;1.95;;;14.40;99.90;;;;;;5011405;28;20058;-70
2023/09/14 01:12:32;;;;;;;12.68;3.80;;;14.40;99.90;;;;;;5005208;28;20069;-70
2023/09/14 01:15:21;;;;;;;4.65;1.85;;;14.40;99.90;;;;;;5011552;28;20081;-70
2023/09/14 01:18:14;;;;;;;9.10;2.25;;;14.50;99.90;;;;;;5010048;28;20130;-70
2023/09/14 01:20:55;;;;;;;4.47;2.05;;;14.50;99.90;;;;;;5009537;28;20489;-70
2023/09/14 01:23:28;;;;;;;5.65;2.17;;;14.50;99.90;;;;;;5011246;28;20049;-70
2023/09/14 01:25:55;;;;;;;5.43;1.60;;;14.50;99.90;;;;;;5013793;28;20515;-70
2023/09/14 01:28:21;;;;;;;8.82;2.00;;;14.50;99.90;;;;;;5013911;28;20041;-70
2023/09/14 01:30:46;;;;;;;5.97;1.88;;;14.50;99.90;;;;;;5014284;28;20050;-71
2023/09/14 01:33:15;;;;;;;5.65;2.22;;;14.50;99.90;;;;;;5014553;28;20136;-70
2023/09/14 01:36:01;;;;;;;4.10;1.90;;;14.50;99.90;;;;;;5013453;28;20488;-69
2023/09/14 01:38:29;;;;;;;6.80;2.40;;;14.50;99.90;;;;;;5014035;28;20041;-70
2023/09/14 01:40:56;;;;;;;4.03;1.88;;;14.50;99.90;;;;;;5014552;28;20088;-70
2023/09/14 01:43:22;;;;;;;4.55;1.70;;;14.50;99.90;;;;;;5014202;28;20057;-70
2023/09/14 01:45:49;;;;;;;6.07;2.30;;;14.50;99.90;;;;;;5012729;28;20165;-70
2023/09/14 01:48:16;;;;;;;6.40;2.03;;;14.40;99.90;;;;;;5029805;28;20530;-69
2023/09/14 01:50:42;;;;;;;8.30;1.90;;;14.40;99.90;;;;;;5014035;28;20129;-70
2023/09/14 01:53:09;;;;;;;5.70;1.90;;;14.40;99.90;;;;;;5013080;28;20053;-70
2023/09/14 01:55:34;;;;;;;6.30;2.30;;;14.30;99.90;;;;;;5013542;28;20395;-69
2023/09/14 01:58:00;;;;;;;5.95;2.28;;;14.30;99.90;;;;;;4996165;28;20057;-69
2023/09/14 02:00:26;;;;;;;5.22;2.05;;;14.30;99.90;;;;;;5014266;28;20103;-69
2023/09/14 02:02:52;;;;;;;8.25;2.20;;;14.30;99.90;;;;;;5013483;28;20049;-69
2023/09/14 02:05:18;;;;;;;5.10;1.83;;;14.20;99.90;;;;;;5014097;28;20053;-69
2023/09/14 02:07:44;;;;;;;6.47;2.47;;;14.20;99.90;;;;;;5012523;28;20492;-69
2023/09/14 02:10:10;;;;;;;5.88;2.10;;;14.20;99.90;;;;;;5013129;28;20038;-70
2023/09/14 02:12:36;;;;;;;5.57;2.28;;;14.20;99.90;;;;;;5028748;28;20041;-70
2023/09/14 02:15:01;;;;;;;6.63;2.42;;;14.10;99.90;;;;;;5013890;28;20080;-70
2023/09/14 02:17:29;;;;;;;6.65;2.13;;;14.10;99.90;;;;;;5012977;28;20077;-70
2023/09/14 02:19:55;;;;;;;5.63;1.95;;;14.10;99.90;;;;;;5011943;28;20463;-71
2023/09/14 02:22:21;;;;;;;8.65;2.25;;;14.10;99.90;;;;;;5013931;28;20100;-70
2023/09/14 02:24:47;;;;;;;8.95;2.30;;;14.10;99.90;;;;;;5012223;28;20045;-70
2023/09/14 02:27:13;;;;;;;8.05;2.60;;;14.10;99.90;;;;;;5014026;28;20049;-70
2023/09/14 02:29:39;;;;;;;8.95;2.03;;;14.10;99.90;;;;;;4995378;28;20044;-70
2023/09/14 02:32:07;;;;;;;8.32;2.10;;;14.10;99.90;;;;;;5011551;28;20045;-70
2023/09/14 02:34:33;;;;;;;6.90;2.33;;;14.10;99.90;;;;;;5012353;28;20038;-70
2023/09/14 02:36:58;;;;;;;5.10;1.95;;;14.10;99.90;;;;;;5012896;28;20168;-70
2023/09/14 02:39:24;;;;;;;6.60;2.00;;;14.10;99.90;;;;;;5013254;28;20046;-70
2023/09/14 02:41:50;;;;;;;4.60;2.05;;;14.10;99.90;;;;;;5011883;28;20049;-70
2023/09/14 02:44:15;;;;;;;6.47;2.53;;;14.10;99.90;;;;;;4996488;28;20038;-70
2023/09/14 02:46:41;;;;;;;5.00;2.03;;;14.10;99.90;;;;;;5012654;28;20130;-70
2023/09/14 02:49:07;;;;;;;8.32;2.00;;;14.10;99.90;;;;;;5013326;28;20067;-70
2023/09/14 02:51:32;;;;;;;8.52;2.75;;;14.10;99.90;;;;;;5012978;28;20389;-70
2023/09/14 02:53:58;;;;;;;3.97;1.80;;;14.10;99.90;;;;;;5011531;28;20061;-70
2023/09/14 02:56:24;;;;;;;3.80;1.70;;;14.10;99.90;;;;;;5013183;28;20459;-69
2023/09/14 02:58:52;;;;;;;8.95;2.42;;;14.10;99.90;;;;;;5012801;28;20056;-69
2023/09/14 03:01:20;;;;;;;6.18;2.20;;;14.10;99.90;;;;;;5012735;28;20491;-70
2023/09/14 03:03:47;;;;;;;6.78;2.40;;;14.10;99.90;;;;;;5012800;28;20123;-70
2023/09/14 03:06:13;;;;;;;7.18;1.98;;;14.00;99.90;;;;;;5011758;28;20038;-69
2023/09/14 03:08:39;;;;;;;7.57;2.03;;;14.00;99.90;;;;;;5012610;28;20392;-69
2023/09/14 03:11:05;;;;;;;3.78;1.80;;;14.00;99.90;;;;;;5012567;28;20042;-69
2023/09/14 03:13:31;;;;;;;5.35;2.03;;;14.00;99.90;;;;;;5013081;28;20044;-69
2023/09/14 03:15:59;;;;;;;7.18;2.20;;;14.00;99.90;;;;;;5012491;28;20041;-69
2023/09/14 03:18:25;;;;;;;7.47;1.88;;;14.00;99.90;;;;;;5013080;28;20042;-69
2023/09/14 03:20:56;;;;;;;5.80;2.35;;;14.10;99.90;;;;;;5012137;28;20067;-69
2023/09/14 03:23:22;;;;;;;7.20;2.40;;;14.10;99.90;;;;;;4999176;28;20614;-69
2023/09/14 03:25:49;;;;;;;6.43;1.90;;;14.10;99.90;;;;;;5011907;28;20518;-69
2023/09/14 03:28:18;;;;;;;5.85;1.85;;;14.10;99.90;;;;;;5012523;28;20103;-69
2023/09/14 03:30:44;;;;;;;6.10;2.00;;;14.10;99.90;;;;;;5012121;28;20107;-69
2023/09/14 03:33:11;;;;;;;4.20;1.90;;;14.10;99.90;;;;;;5010943;28;20045;-69
2023/09/14 03:35:37;;;;;;;6.30;2.10;;;14.10;99.90;;;;;;5012566;28;20069;-69
2023/09/14 03:38:03;;;;;;;5.13;1.70;;;14.10;99.90;;;;;;5011843;28;20052;-70
2023/09/14 03:40:29;;;;;;;6.10;2.20;;;14.10;99.90;;;;;;5011239;28;20042;-70
2023/09/14 03:42:54;;;;;;;4.57;2.05;;;14.10;99.90;;;;;;5011729;28;20399;-70
2023/09/14 03:45:20;;;;;;;7.40;2.10;;;14.00;99.90;;;;;;5011496;28;20048;-70
2023/09/14 03:47:49;;;;;;;3.92;1.80;;;14.00;99.90;;;;;;5011388;28;20046;-70
2023/09/14 03:50:15;;;;;;;4.57;1.95;;;13.90;99.90;;;;;;4995393;28;20049;-70
2023/09/14 03:52:40;;;;;;;4.55;2.03;;;13.90;99.90;;;;;;5011687;28;20048;-70
2023/09/14 03:55:07;;;;;;;5.40;1.90;;;13.90;99.90;;;;;;5011378;28;20061;-70
2023/09/14 03:57:33;;;;;;;7.65;2.10;;;13.80;99.90;;;;;;5011974;28;20061;-70
2023/09/14 03:59:58;;;;;;;4.07;1.95;;;13.80;99.90;;;;;;4994967;28;20526;-70
2023/09/14 04:02:24;;;;;;;6.88;2.10;;;13.70;99.90;;;;;;5024098;28;20081;-70
2023/09/14 04:04:50;;;;;;;4.97;2.30;;;13.60;99.90;;;;;;5008715;28;20044;-70
2023/09/14 04:07:16;;;;;;;6.55;2.30;;;13.60;99.90;;;;;;4994612;28;20049;-70
2023/09/14 04:09:43;;;;;;;5.82;1.98;;;13.60;99.90;;;;;;5011793;28;20447;-70
2023/09/14 04:12:09;;;;;;;8.88;2.83;;;13.60;99.90;;;;;;5011670;28;20033;-70
2023/09/14 04:14:35;;;;;;;8.85;2.15;;;13.60;99.90;;;;;;5012148;28;20060;-70
2023/09/14 04:17:01;;;;;;;5.35;2.05;;;13.50;99.90;;;;;;5011404;28;20037;-71
2023/09/14 04:19:29;;;;;;;5.80;2.10;;;13.40;99.90;;;;;;5012097;28;20054;-70
2023/09/14 04:21:55;;;;;;;4.15;2.13;;;13.40;99.90;;;;;;5010733;28;20046;-70
2023/09/14 04:24:21;;;;;;;6.30;2.22;;;13.30;99.90;;;;;;5011350;28;20518;-70
2023/09/14 04:26:47;;;;;;;8.10;2.70;;;13.30;99.90;;;;;;5011438;28;20045;-70
2023/09/14 04:29:13;;;;;;;7.60;2.28;;;13.20;99.90;;;;;;5043514;28;20050;-70
2023/09/14 04:31:42;;;;;;;4.18;2.28;;;13.20;99.90;;;;;;5010603;28;20399;-70
2023/09/14 04:34:08;;;;;;;7.25;2.17;;;13.10;99.90;;;;;;5010110;28;20095;-70
2023/09/14 04:36:36;;;;;;;6.10;2.85;;;13.10;99.90;;;;;;5010224;28;20068;-70
2023/09/14 04:39:02;;;;;;;5.85;2.17;;;13.10;99.90;;;;;;5010363;28;20050;-70
2023/09/14 04:41:27;;;;;;;7.40;2.40;;;13.00;99.90;;;;;;5003934;28;20044;-70
2023/09/14 04:43:53;;;;;;;8.32;2.72;;;13.00;99.90;;;;;;5033222;28;20046;-70
2023/09/14 04:46:19;;;;;;;6.45;3.17;;;13.00;99.90;;;;;;5005236;28;20105;-70
2023/09/14 04:48:47;;;;;;;9.55;3.00;;;12.90;99.90;;;;;;5010374;28;20108;-70
2023/09/14 04:51:13;;;;;;;13.13;3.28;;;12.90;99.90;;;;;;5040993;28;20297;-70
2023/09/14 04:53:38;;;;;;;6.20;3.03;;;12.90;99.90;;;;;;4998199;28;20444;-70
2023/09/14 04:56:04;;;;;;;8.90;3.03;;;12.90;99.90;;;;;;5029209;28;20061;-70
2023/09/14 04:58:30;;;;;;;6.15;2.70;;;12.80;99.90;;;;;;5009750;28;20061;-70
2023/09/14 05:00:56;;;;;;;6.97;2.95;;;12.80;99.90;;;;;;5045104;28;20077;-70
2023/09/14 05:03:22;;;;;;;7.30;2.88;;;12.80;99.90;;;;;;5046930;28;20530;-70
2023/09/14 05:05:53;;;;;;;5.22;2.72;;;12.80;99.90;;;;;;5014936;28;20081;-70
2023/09/14 05:08:19;;;;;;;6.75;3.15;;;12.70;99.90;;;;;;5046420;28;20061;-70
2023/09/14 05:10:51;;;;;;;8.00;3.05;;;12.70;99.90;;;;;;5013018;28;20057;-70
2023/09/14 05:13:20;;;;;;;6.55;2.95;;;12.70;99.90;;;;;;5002537;28;20104;-70
2023/09/14 05:15:47;;;;;;;7.10;3.00;;;12.70;99.90;;;;;;5014922;28;20377;-70
2023/09/14 05:18:13;;;;;;;7.50;2.75;;;12.70;99.90;;;;;;5013202;28;20065;-70
2023/09/14 05:20:48;;;;;;;8.38;2.85;;;12.70;99.90;;;;;;5012991;28;20072;-70
2023/09/14 05:23:14;;;;;;;10.48;3.10;;;12.70;99.90;;;;;;5014113;28;20128;-71
2023/09/14 05:25:40;;;;;;;10.40;2.95;;;12.70;99.90;;;;;;5014744;28;20125;-70
2023/09/14 05:28:08;;;;;;;7.47;3.05;;;12.70;99.90;;;;;;5014279;28;20042;-70
2023/09/14 05:30:34;;;;;;;8.10;2.70;;;12.70;99.90;;;;;;5013608;28;20045;-70
2023/09/14 05:33:01;;;;;;;8.70;3.22;;;12.70;99.90;;;;;;5014360;28;20506;-71
2023/09/14 05:35:26;;;;;;;7.57;2.85;;;12.70;99.90;;;;;;5030195;28;20130;-70
2023/09/14 05:37:52;;;;;;;7.43;2.90;;;12.80;99.90;;;;;;5030048;28;20124;-71
2023/09/14 05:40:18;;;;;;;7.47;3.30;;;12.80;99.90;;;;;;5011821;28;20494;-71
2023/09/14 05:42:44;;;;;;;7.53;2.95;;;12.80;99.90;;;;;;5045603;28;20058;-70
2023/09/14 05:45:14;;;;;;;7.50;2.60;;;13.00;99.90;;;;;;5013799;28;20056;-70
2023/09/14 05:47:40;;;;;;;6.30;2.63;;;13.00;99.90;;;;;;5014621;28;20046;-70
2023/09/14 05:50:10;;;;;;;7.80;2.88;;;13.30;99.90;;;;;;5013634;28;20510;-70
2023/09/14 05:52:36;;;;;;;10.60;3.42;;;13.60;99.90;;;;;;5014041;28;20095;-70
2023/09/14 05:55:05;;;;;;;7.20;2.85;;;14.00;99.90;;;;;;5013409;28;20060;-70
2023/09/14 05:57:31;;;;;;;7.32;2.55;;;14.40;99.90;;;;;;5012591;28;20062;-70
2023/09/14 05:59:58;;;;;;;9.50;2.47;;;14.60;99.90;;;;;;5014169;28;20518;-70
2023/09/14 06:02:24;;;;;;;14.05;2.83;;;14.50;99.90;;;;;;5012968;28;20497;-70
2023/09/14 06:04:50;;;;;;;17.05;2.95;;;14.40;99.90;;;;;;5014421;28;20053;-70
2023/09/14 06:07:16;;;;;;;13.05;2.83;;;14.30;99.90;;;;;;5012920;28;20046;-70
2023/09/14 06:09:42;;;;;;;8.13;2.50;;;14.20;99.90;;;;;;5014255;28;20403;-70
2023/09/14 06:12:07;;;;;;;3.95;2.10;;;14.10;99.90;;;;;;5012994;28;20126;-70
2023/09/14 06:14:33;;;;;;;10.73;2.78;;;14.00;99.90;;;;;;5007729;28;20403;-69
2023/09/14 06:16:59;;;;;;;10.38;2.75;;;14.00;99.90;;;;;;5014318;28;20052;-69
2023/09/14 06:19:25;;;;;;;12.10;2.72;;;13.90;99.90;;;;;;5013547;28;20450;-69
2023/09/14 06:21:51;;;;;;;12.88;3.00;;;13.90;99.90;;;;;;5013871;28;20145;-69
2023/09/14 06:24:17;;;;;;;8.18;2.10;;;13.90;99.90;;;;;;4995346;28;20081;-70
2023/09/14 06:26:44;;;;;;;4.75;2.40;;;14.00;99.90;;;;;;5029103;28;20041;-69
2023/09/14 06:29:13;;;;;;;5.93;2.60;;;14.00;99.90;;;;;;5012564;28;20465;-70
2023/09/14 06:31:40;;;;;;;6.68;2.60;;;14.00;99.90;;;;;;5001148;28;20050;-70
2023/09/14 06:34:06;;;;;;;8.23;2.67;;;14.00;99.90;;;;;;5012762;28;20068;-71
2023/09/14 06:36:32;;;;;;;6.68;2.20;;;14.00;99.90;;;;;;5044581;28;20045;-74
2023/09/14 06:38:57;;;;;;;6.20;2.50;;;14.10;99.90;;;;;;5012166;28;20487;-73
2023/09/14 06:41:23;;;;;;;4.53;1.92;;;14.10;99.90;;;;;;5012115;28;20137;-74
2023/09/14 06:43:49;;;;;;;6.22;2.17;;;14.10;99.90;;;;;;5044200;28;20057;-72
2023/09/14 06:46:14;;;;;;;7.35;2.70;;;14.20;99.90;;;;;;5010167;28;20049;-74
2023/09/14 06:48:40;;;;;;;7.35;2.35;;;14.20;99.90;;;;;;5011711;28;20415;-74
2023/09/14 06:51:06;;;;;;;6.68;2.20;;;14.20;99.90;;;;;;5012257;28;20068;-73
2023/09/14 06:53:35;;;;;;;4.53;2.03;;;14.40;99.90;;;;;;5011893;28;20304;-76
2023/09/14 06:56:09;;;;;;;9.80;2.10;;;14.50;99.90;;;;;;5011836;28;20037;-75
2023/09/14 06:58:34;;;;;;;6.57;2.13;;;14.60;99.90;;;;;;5037359;28;20062;-72
2023/09/14 07:01:05;;;;;;;6.40;2.17;;;14.60;99.90;;;;;;5007682;28;20125;-75
2023/09/14 07:03:32;;;;;;;6.80;2.40;;;14.60;99.90;;;;;;5008646;28;20045;-74
2023/09/14 07:05:58;;;;;;;5.45;2.17;;;14.70;99.90;;;;;;5014876;28;20046;-74
2023/09/14 07:08:24;;;;;;;4.97;1.90;;;15.10;99.90;;;;;;5012889;28;20104;-73
2023/09/14 07:10:50;;;;;;;7.32;2.17;;;15.60;99.90;;;;;;5045502;28;20443;-74
2023/09/14 07:13:16;;;;;;;7.32;1.90;;;16.20;99.90;;;;;;5022313;28;20125;-79
2023/09/14 07:15:42;;;;;;;7.95;2.20;;;16.40;99.90;;;;;;5011951;28;20053;-73
2023/09/14 07:18:11;;;;;;;6.10;2.40;;;16.40;99.90;;;;;;5013216;28;20042;-73
2023/09/14 07:20:37;;;;;;;6.40;1.80;;;16.50;99.90;;;;;;5044622;28;20049;-73
2023/09/14 07:23:02;;;;;;;7.15;2.10;;;16.40;99.90;;;;;;5012700;28;20125;-73
2023/09/14 07:25:28;;;;;;;7.18;2.10;;;16.40;99.90;;;;;;5044517;28;20491;-73
2023/09/14 07:27:54;;;;;;;5.15;2.10;;;16.40;99.90;;;;;;5012568;28;20088;-73
2023/09/14 07:30:20;;;;;;;6.82;2.15;;;16.40;99.90;;;;;;5044648;28;20054;-74
2023/09/14 07:32:45;;;;;;;6.95;2.30;;;16.50;99.90;;;;;;5012806;28;20046;-75
2023/09/14 07:35:13;;;;;;;7.53;2.10;;;16.50;99.90;;;;;;5011697;28;20500;-74
2023/09/14 07:37:39;;;;;;;5.63;1.70;;;16.60;99.90;;;;;;5011556;28;20064;-73
2023/09/14 07:40:06;;;;;;;3.78;1.88;;;16.70;99.90;;;;;;5012256;28;20406;-74
2023/09/14 07:42:32;;;;;;;3.95;1.80;;;17.10;99.90;;;;;;4995418;28;20069;-73
2023/09/14 07:44:57;;;;;;;5.07;1.98;;;17.70;99.90;;;;;;5012618;28;20104;-73
2023/09/14 07:47:28;;;;;;;5.80;1.75;;;18.30;99.90;;;;;;5011361;28;20069;-73
2023/09/14 07:49:53;;;;;;;7.05;1.65;;;19.20;99.90;;;;;;5011816;28;20057;-74
2023/09/14 07:52:19;;;;;;;5.10;1.92;;;20.20;99.90;;;;;;5012308;28;20040;-74
2023/09/14 07:54:45;;;;;;;5.85;1.92;;;21.10;99.80;;;;;;5028612;28;20048;-74
2023/09/14 07:57:11;;;;;;;5.47;2.25;;;22.00;98.80;;;;;;5010964;28;20043;-75
2023/09/14 07:59:36;;;;;;;6.40;1.88;;;22.80;97.70;;;;;;5011185;28;20084;-76
2023/09/14 08:02:02;;;;;;;7.32;2.00;;;23.40;96.50;;;;;;4996028;28;20078;-75
2023/09/14 08:04:28;;;;;;;4.40;1.88;;;23.50;96.00;;;;;;5044460;28;20077;-74
2023/09/14 08:06:54;;;;;;;6.32;2.00;;;23.20;95.70;;;;;;5011727;28;20108;-75
2023/09/14 08:09:19;;;;;;;6.15;2.03;;;22.70;95.50;;;;;;5012219;28;20041;-74
2023/09/14 08:11:45;;;;;;;5.78;1.95;;;22.40;95.80;;;;;;5012085;28;20121;-76
2023/09/14 08:14:11;;;;;;;3.38;1.70;;;22.00;95.90;;;;;;5012064;28;20038;-75
2023/09/14 08:16:36;;;;;;;6.93;2.10;;;21.80;96.10;;;;;;5027397;28;20546;-77
2023/09/14 08:19:02;;;;;;;4.50;1.70;;;21.90;96.10;;;;;;5011729;28;20046;-75
2023/09/14 08:21:28;;;;;;;5.40;1.60;;;22.20;95.80;;;;;;4994286;28;20092;-76
2023/09/14 08:23:53;;;;;;;8.07;2.10;;;22.90;95.50;;;;;;5009025;28;20065;-78
2023/09/14 08:26:20;;;;;;;5.13;1.80;;;23.20;94.80;;;;;;5038339;28;20038;-75
2023/09/14 08:28:46;;;;;;;4.55;1.67;;;23.60;94.80;;;;;;5035287;28;20638;-74
2023/09/14 08:31:12;;;;;;;2.75;1.45;;;23.80;94.20;;;;;;5011678;28;20038;-74
2023/09/14 08:33:37;;;;;;;4.38;1.60;;;23.90;93.90;;;;;;5011885;28;20046;-74
2023/09/14 08:36:03;;;;;;;5.30;1.90;;;24.10;93.60;;;;;;5026896;28;20050;-75
2023/09/14 08:38:29;;;;;;;5.00;1.75;;;24.00;93.70;;;;;;5010436;28;20472;-80
2023/09/14 08:41:00;;;;;;;4.25;1.60;;;23.60;93.90;;;;;;5011501;28;20077;-74
2023/09/14 08:43:27;;;;;;;3.55;1.77;;;23.30;93.80;;;;;;5044948;28;20543;-75
2023/09/14 08:45:55;;;;;;;6.50;1.70;;;23.10;94.00;;;;;;5009534;28;20488;-75
2023/09/14 08:48:26;;;;;;;6.32;1.80;;;23.20;94.20;;;;;;5039857;28;20046;-75
2023/09/14 08:50:53;;;;;;;6.00;2.17;;;23.50;94.70;;;;;;5000860;28;20057;-71
2023/09/14 08:53:20;;;;;;;4.75;1.90;;;23.70;93.40;;;;;;5004226;28;20049;-70
2023/09/14 08:55:46;;;;;;;6.15;2.15;;;24.00;92.90;;;;;;5003077;28;20061;-71
2023/09/14 08:58:13;;;;;;;4.40;2.03;;;24.20;92.50;;;;;;5000614;28;20484;-70
2023/09/14 09:00:41;;;;;;;6.00;1.90;;;24.40;92.50;;;;;;5008595;28;20054;-71
2023/09/14 09:03:07;;;;;;;7.30;1.98;;;24.90;92.20;;;;;;5008531;28;20084;-72
2023/09/14 09:05:32;;;;;;;6.90;2.15;;;25.20;92.10;;;;;;5005604;28;20073;-73
2023/09/14 09:07:59;;;;;;;5.65;2.03;;;25.40;92.30;;;;;;5008243;28;20050;-71
2023/09/14 09:10:30;;;;;;;5.82;1.77;;;25.70;92.10;;;;;;5008323;28;20073;-71
2023/09/14 09:13:01;;;;;;;4.97;1.92;;;26.10;91.50;;;;;;5008602;28;20049;-70
2023/09/14 09:15:27;;;;;;;5.38;2.40;;;26.40;91.50;;;;;;5039909;28;20440;-70
2023/09/14 09:18:08;;;;;;;4.40;1.77;;;26.20;91.20;;;;;;5002951;28;20571;-74
2023/09/14 09:20:36;;;;;;;9.18;1.90;;;25.70;91.00;;;;;;5004200;28;20054;-78
2023/09/14 09:23:03;;;;;;;4.30;1.85;;;24.90;91.90;;;;;;5009159;28;20050;-71
2023/09/14 09:25:44;;;;;;;5.82;1.85;;;24.50;92.10;;;;;;5011122;28;20050;-71
2023/09/14 09:28:09;;;;;;;4.43;1.92;;;24.10;92.00;;;;;;5007690;28;20042;-72
2023/09/14 09:30:36;;;;;;;8.10;2.28;;;23.70;92.30;;;;;;5010638;28;20112;-77
2023/09/14 09:33:03;;;;;;;7.47;2.05;;;23.40;92.60;;;;;;5011127;28;20100;-74
2023/09/14 09:35:30;;;;;;;5.45;1.90;;;23.30;92.80;;;;;;4990610;28;20038;-74
2023/09/14 09:37:58;;;;;;;4.10;1.50;;;23.10;92.50;;;;;;5010034;28;20077;-71
2023/09/14 09:40:26;;;;;;;6.63;1.85;;;22.90;92.30;;;;;;5005575;28;20046;-74
2023/09/14 09:42:52;;;;;;;4.63;1.77;;;22.80;92.50;;;;;;4988904;28;20041;-71
2023/09/14 09:45:23;;;;;;;5.20;1.95;;;22.70;92.60;;;;;;5008709;28;20050;-71
2023/09/14 09:47:49;;;;;;;7.05;1.80;;;22.70;93.00;;;;;;5014490;28;20448;-71
2023/09/14 09:50:19;;;;;;;6.03;1.83;;;22.60;93.30;;;;;;5012970;28;20125;-73
2023/09/14 09:52:46;;;;;;;4.85;1.98;;;22.50;93.20;;;;;;5012991;28;20053;-71
2023/09/14 09:55:24;;;;;;;7.22;2.10;;;22.50;93.60;;;;;;5014030;28;20053;-71
2023/09/14 09:57:51;;;;;;;5.20;1.98;;;22.40;93.30;;;;;;5043058;28;20050;-71
2023/09/14 10:00:19;;;;;;;5.00;1.60;;;22.30;93.60;;;;;;5013968;28;20054;-71
2023/09/14 10:02:47;;;;;;;5.88;1.80;;;22.40;93.60;;;;;;5014128;28;20046;-70
2023/09/14 10:05:13;;;;;;;6.63;2.17;;;22.50;94.10;;;;;;5012916;28;20052;-71
2023/09/14 10:07:40;;;;;;;4.82;2.10;;;22.50;93.60;;;;;;5012013;28;20113;-76
2023/09/14 10:10:10;;;;;;;10.77;2.00;;;22.40;93.80;;;;;;5045377;28;20073;-70
2023/09/14 10:12:39;;;;;;;7.40;2.35;;;22.40;93.50;;;;;;5013767;28;20557;-70
2023/09/14 10:15:06;;;;;;;7.82;2.10;;;22.30;93.70;;;;;;5012494;28;20530;-70
2023/09/14 10:17:32;;;;;;;5.85;1.98;;;22.20;93.60;;;;;;5013457;28;20121;-72
2023/09/14 10:20:08;;;;;;;7.82;2.05;;;22.20;93.70;;;;;;5013353;28;20136;-76
2023/09/14 10:22:36;;;;;;;7.00;2.40;;;22.30;93.60;;;;;;5013281;28;20403;-72
2023/09/14 10:25:04;;;;;;;5.68;1.75;;;22.20;93.70;;;;;;5012644;28;20203;-72
2023/09/14 10:27:30;;;;;;;5.65;2.17;;;22.20;93.70;;;;;;5043921;28;20084;-71
2023/09/14 10:29:57;;;;;;;6.93;2.00;;;22.20;94.00;;;;;;4996281;28;20050;-71
2023/09/14 10:32:25;;;;;;;8.88;2.13;;;22.30;94.50;;;;;;5012584;28;20400;-71
2023/09/14 10:34:52;;;;;;;5.95;2.20;;;22.20;93.90;;;;;;5012111;28;20053;-71
2023/09/14 10:37:21;;;;;;;5.53;2.15;;;22.20;93.70;;;;;;5013227;28;20050;-69
2023/09/14 10:39:47;;;;;;;5.40;2.00;;;22.20;93.60;;;;;;5042536;28;20042;-72
2023/09/14 10:42:13;;;;;;;6.68;1.90;;;22.00;94.00;;;;;;4995474;28;20045;-72
2023/09/14 10:44:40;;;;;;;8.40;2.10;;;22.00;94.40;;;;;;5013217;28;20488;-71
2023/09/14 10:47:07;;;;;;;4.75;1.88;;;21.90;94.70;;;;;;5011308;28;20642;-71
2023/09/14 10:49:35;;;;;;;5.80;2.05;;;21.70;94.30;;;;;;4995551;28;20140;-71
2023/09/14 10:52:01;;;;;;;6.93;2.55;;;21.70;94.50;;;;;;5010915;28;20121;-70
2023/09/14 10:54:30;;;;;;;8.18;2.58;;;21.60;94.30;;;;;;4990177;28;20045;-70
2023/09/14 10:57:00;;;;;;;5.55;1.98;;;21.40;94.80;;;;;;5011196;28;20615;-73
2023/09/14 10:59:47;;;;;;;6.47;2.40;;;21.40;94.80;;;;;;5011790;28;20085;-70
2023/09/14 11:02:45;;;;;;;6.65;2.20;;;21.50;94.30;;;;;;5008565;28;20155;-70
2023/09/14 11:05:13;;;;;;;6.28;2.10;;;21.60;94.50;;;;;;5011574;28;20125;-70
2023/09/14 11:07:40;;;;;;;5.07;1.98;;;21.60;94.60;;;;;;5011914;28;20506;-69
2023/09/14 11:10:07;;;;;;;6.63;1.92;;;21.60;94.70;;;;;;5012754;28;20049;-69
2023/09/14 11:12:33;;;;;;;5.20;2.17;;;21.70;94.50;;;;;;5011228;28;20045;-69
2023/09/14 11:15:12;;;;;;;4.57;2.08;;;21.70;94.60;;;;;;5012350;28;20037;-70
2023/09/14 11:17:41;;;;;;;5.45;1.92;;;21.70;94.50;;;;;;5011260;28;20074;-70
2023/09/14 11:20:28;;;;;;;6.00;2.25;;;21.70;94.30;;;;;;5012312;28;20478;-70
2023/09/14 11:23:01;;;;;;;6.40;2.08;;;21.90;94.20;;;;;;5002336;28;20053;-73
2023/09/14 11:25:31;;;;;;;7.50;2.10;;;22.00;94.40;;;;;;5010152;28;20117;-71
2023/09/14 11:27:57;;;;;;;6.63;2.30;;;22.10;94.30;;;;;;5010056;28;20037;-70
2023/09/14 11:30:27;;;;;;;4.80;2.05;;;22.10;94.30;;;;;;5011786;28;20054;-71
2023/09/14 11:32:54;;;;;;;9.18;2.42;;;22.00;94.30;;;;;;5008222;28;20045;-78
2023/09/14 11:35:44;;;;;;;7.70;2.22;;;21.90;94.10;;;;;;5008967;28;20042;-69
2023/09/14 11:38:22;;;;;;;5.22;2.25;;;21.70;94.40;;;;;;5005270;28;20128;-70
2023/09/14 11:40:48;;;;;;;5.90;2.22;;;21.60;94.40;;;;;;5011176;28;20128;-70
2023/09/14 11:43:24;;;;;;;8.25;2.35;;;21.60;94.40;;;;;;5009999;28;20676;-70
2023/09/14 11:45:57;;;;;;;5.40;2.05;;;21.60;94.60;;;;;;5037468;28;20057;-70
2023/09/14 11:48:23;;;;;;;4.22;2.00;;;21.60;94.20;;;;;;5008384;28;20126;-70
2023/09/14 11:50:50;;;;;;;7.00;2.25;;;21.60;94.30;;;;;;5007560;28;20554;-71
2023/09/14 11:53:18;;;;;;;6.25;2.10;;;21.60;94.50;;;;;;5005722;28;20038;-71
2023/09/14 11:55:48;;;;;;;5.43;2.90;;;21.50;94.80;;;;;;5008061;28;20061;-71
2023/09/14 11:58:14;;;;;;;8.57;2.30;;;21.40;95.20;;;;;;5010910;28;20172;-71
2023/09/14 12:00:43;;;;;;;7.07;2.20;;;21.40;95.00;;;;;;5023986;28;20400;-71
2023/09/14 12:03:09;;;;;;;7.80;2.20;;;21.30;95.00;;;;;;5010977;28;20124;-70
2023/09/14 12:05:35;;;;;;;7.07;2.15;;;21.30;95.40;;;;;;5036086;28;20133;-70
2023/09/14 12:08:09;;;;;;;4.60;2.03;;;21.30;95.50;;;;;;5005297;28;20049;-71
2023/09/14 12:10:35;;;;;;;6.47;2.17;;;21.40;95.30;;;;;;5038423;28;20054;-70
2023/09/14 12:13:11;;;;;;;6.03;2.15;;;21.50;95.30;;;;;;5011276;28;20049;-75
2023/09/14 12:15:36;;;;;;;5.85;2.40;;;21.60;94.70;;;;;;5005879;28;20045;-69
2023/09/14 12:18:03;;;;;;;7.88;2.65;;;21.50;94.70;;;;;;5042805;28;20349;-71
2023/09/14 12:20:29;;;;;;;8.07;2.22;;;21.50;95.00;;;;;;5011778;28;20089;-69
2023/09/14 12:22:56;;;;;;;7.97;2.78;;;21.40;95.20;;;;;;5010391;28;20042;-69
2023/09/14 12:25:22;;;;;;;7.85;2.58;;;21.40;95.40;;;;;;4993656;28;20046;-70
2023/09/14 12:27:48;;;;;;;7.03;2.45;;;21.30;95.30;;;;;;5012009;28;20128;-70
2023/09/14 12:30:16;;;;;;;9.40;2.60;;;21.30;95.70;;;;;;5011202;28;20503;-73
2023/09/14 12:32:42;;;;;;;7.85;2.58;;;21.40;95.90;;;;;;5034500;28;20485;-70
2023/09/14 12:35:15;;;;;;;9.27;3.00;;;21.40;95.60;;;;;;5043611;28;20431;-70
2023/09/14 12:37:41;;;;;;;7.35;2.38;;;21.40;95.50;;;;;;5042926;28;20503;-69
2023/09/14 12:40:10;;;;;;;9.55;2.63;;;21.30;95.40;;;;;;5010345;28;20073;-69
2023/09/14 12:42:36;;;;;;;7.57;2.90;;;21.30;95.50;;;;;;4979054;28;20056;-72
2023/09/14 12:45:07;;;;;;;6.93;2.58;;;21.30;95.60;;;;;;5010129;28;20515;-72
2023/09/14 12:47:33;;;;;;;6.65;2.60;;;21.30;95.50;;;;;;5011632;28;20128;-72